createdAt,value
2023-05-19T00:00:05.736Z,11.9
2023-05-19T00:01:05.935Z,11.9
2023-05-19T00:02:06.336Z,11.9
2023-05-19T00:03:06.857Z,11.9
2023-05-19T00:04:07.173Z,11.9
2023-05-19T00:05:07.323Z,11.9
2023-05-19T00:06:07.708Z,11.9
2023-05-19T00:07:08.198Z,11.9
2023-05-19T00:08:08.365Z,11.9
2023-05-19T00:09:08.619Z,11.9
2023-05-19T00:10:08.802Z,11.9
2023-05-19T00:11:09.021Z,11.9
2023-05-19T00:12:09.205Z,11.9
2023-05-19T00:13:09.389Z,11.9
2023-05-19T00:14:09.789Z,11.9
2023-05-19T00:15:10.022Z,11.9
2023-05-19T00:16:10.292Z,11.9
2023-05-19T00:17:10.547Z,11.9
2023-05-19T00:18:10.812Z,11.9
2023-05-19T00:19:11.267Z,11.9
2023-05-19T00:20:11.474Z,11.9
2023-05-19T00:21:11.621Z,11.9
2023-05-19T00:22:11.787Z,11.9
2023-05-19T00:23:11.980Z,11.9
2023-05-19T00:24:12.150Z,11.9
2023-05-19T00:25:12.355Z,11.9
2023-05-19T00:26:12.518Z,11.9
2023-05-19T00:27:12.669Z,11.9
2023-05-19T00:28:12.856Z,11.9
2023-05-19T00:29:13.012Z,11.9
2023-05-19T00:30:13.177Z,11.9
2023-05-19T00:31:13.375Z,11.7
2023-05-19T00:32:13.708Z,11.7
2023-05-19T00:33:14.000Z,11.7
2023-05-19T00:34:14.151Z,11.7
2023-05-19T00:35:14.322Z,11.7
2023-05-19T00:36:14.472Z,11.7
2023-05-19T00:37:14.655Z,11.7
2023-05-19T00:38:14.808Z,11.7
2023-05-19T00:39:14.968Z,11.7
2023-05-19T00:40:15.187Z,11.7
2023-05-19T00:41:15.348Z,11.7
2023-05-19T00:42:15.516Z,11.7
2023-05-19T00:43:15.675Z,11.7
2023-05-19T00:44:15.838Z,11.7
2023-05-19T00:45:16.004Z,11.7
2023-05-19T00:46:16.261Z,11.7
2023-05-19T00:47:16.528Z,11.7
2023-05-19T00:48:16.701Z,11.7
2023-05-19T00:49:16.862Z,11.7
2023-05-19T00:50:17.042Z,11.7
2023-05-19T00:51:17.444Z,11.7
2023-05-19T00:52:17.613Z,11.7
2023-05-19T00:53:17.792Z,11.7
2023-05-19T00:54:17.970Z,11.7
2023-05-19T00:55:18.137Z,11.7
2023-05-19T00:56:18.296Z,11.7
2023-05-19T00:57:18.486Z,11.7
2023-05-19T00:58:18.661Z,11.7
2023-05-19T00:59:18.828Z,11.7
2023-05-19T01:00:18.984Z,11.7
2023-05-19T01:01:19.264Z,11.7
2023-05-19T01:02:19.537Z,11.7
2023-05-19T01:03:19.944Z,11.7
2023-05-19T01:04:20.267Z,11.7
2023-05-19T01:05:20.452Z,11.7
2023-05-19T01:06:20.702Z,11.7
2023-05-19T01:07:20.915Z,11.7
2023-05-19T01:08:21.074Z,11.7
2023-05-19T01:09:21.254Z,11.7
2023-05-19T01:10:21.409Z,11.7
2023-05-19T01:11:21.608Z,11.7
2023-05-19T01:12:21.784Z,11.7
2023-05-19T01:13:21.955Z,11.7
2023-05-19T01:14:22.166Z,11.7
2023-05-19T01:15:22.319Z,11.7
2023-05-19T01:16:22.744Z,11.7
2023-05-19T01:17:23.117Z,11.7
2023-05-19T01:18:23.271Z,11.7
2023-05-19T01:19:23.552Z,11.7
2023-05-19T01:20:23.934Z,11.7
2023-05-19T01:21:24.121Z,11.7
2023-05-19T01:22:24.291Z,11.7
2023-05-19T01:23:24.458Z,11.7
2023-05-19T01:24:24.655Z,11.7
2023-05-19T01:25:24.824Z,11.7
2023-05-19T01:26:24.988Z,11.7
2023-05-19T01:27:25.165Z,11.7
2023-05-19T01:28:25.318Z,11.7
2023-05-19T01:29:25.483Z,11.7
2023-05-19T01:30:25.634Z,11.7
2023-05-19T01:31:25.949Z,11.4
2023-05-19T01:32:26.257Z,11.4
2023-05-19T01:33:26.485Z,11.4
2023-05-19T01:34:26.694Z,11.4
2023-05-19T01:35:26.882Z,11.4
2023-05-19T01:36:27.063Z,11.4
2023-05-19T01:37:27.219Z,11.4
2023-05-19T01:38:27.447Z,11.4
2023-05-19T01:39:27.631Z,11.4
2023-05-19T01:40:27.811Z,11.4
2023-05-19T01:41:28.190Z,11.4
2023-05-19T01:42:28.365Z,11.4
2023-05-19T01:43:28.545Z,11.4
2023-05-19T01:44:28.723Z,11.4
2023-05-19T01:45:28.901Z,11.4
2023-05-19T01:46:29.276Z,11.4
2023-05-19T01:47:29.735Z,11.4
2023-05-19T01:48:29.932Z,11.4
2023-05-19T01:49:30.149Z,11.4
2023-05-19T01:50:30.695Z,11.4
2023-05-19T01:51:31.261Z,11.4
2023-05-19T01:52:31.443Z,11.4
2023-05-19T01:53:31.613Z,11.4
2023-05-19T01:54:31.775Z,11.4
2023-05-19T01:55:31.974Z,11.4
2023-05-19T01:56:32.189Z,11.4
2023-05-19T01:57:32.374Z,11.4
2023-05-19T01:58:32.524Z,11.4
2023-05-19T01:59:32.672Z,11.4
2023-05-19T02:00:33.594Z,11.4
2023-05-19T02:01:34.323Z,11.4
2023-05-19T02:02:34.685Z,11.4
2023-05-19T02:03:34.967Z,11.4
2023-05-19T02:04:35.275Z,11.4
2023-05-19T02:05:35.547Z,11.4
2023-05-19T02:06:35.727Z,11.4
2023-05-19T02:07:35.903Z,11.4
2023-05-19T02:08:36.069Z,11.4
2023-05-19T02:09:36.239Z,11.4
2023-05-19T02:10:36.414Z,11.4
2023-05-19T02:11:36.572Z,11.4
2023-05-19T02:12:36.723Z,11.4
2023-05-19T02:13:36.890Z,11.4
2023-05-19T02:14:37.040Z,11.4
2023-05-19T02:15:37.259Z,11.4
2023-05-19T02:16:37.482Z,11.4
2023-05-19T02:17:37.738Z,11.4
2023-05-19T02:18:37.988Z,11.4
2023-05-19T02:19:38.220Z,11.4
2023-05-19T02:20:38.403Z,11.4
2023-05-19T02:21:38.579Z,11.4
2023-05-19T02:22:38.743Z,11.4
2023-05-19T02:23:38.893Z,11.4
2023-05-19T02:24:39.041Z,11.4
2023-05-19T02:25:39.189Z,11.4
2023-05-19T02:26:39.363Z,11.4
2023-05-19T02:27:39.531Z,11.4
2023-05-19T02:28:39.702Z,11.4
2023-05-19T02:29:39.870Z,11.4
2023-05-19T02:30:40.055Z,11.4
2023-05-19T02:31:40.327Z,11
2023-05-19T02:32:40.656Z,11
2023-05-19T02:33:40.874Z,11
2023-05-19T02:34:41.037Z,11
2023-05-19T02:35:41.200Z,11
2023-05-19T02:36:41.382Z,11
2023-05-19T02:37:41.542Z,11
2023-05-19T02:38:41.683Z,11
2023-05-19T02:39:41.847Z,11
2023-05-19T02:40:42.001Z,11
2023-05-19T02:41:42.160Z,11
2023-05-19T02:42:42.325Z,11
2023-05-19T02:43:42.493Z,11
2023-05-19T02:44:42.662Z,11
2023-05-19T02:45:42.839Z,11
2023-05-19T02:46:43.181Z,11
2023-05-19T02:47:43.667Z,11
2023-05-19T02:48:43.950Z,11
2023-05-19T02:49:44.230Z,11
2023-05-19T02:50:44.421Z,11
2023-05-19T02:51:44.572Z,11
2023-05-19T02:52:44.740Z,11
2023-05-19T02:53:44.968Z,11
2023-05-19T02:54:45.172Z,11
2023-05-19T02:55:45.342Z,11
2023-05-19T02:56:45.524Z,11
2023-05-19T02:57:45.724Z,11
2023-05-19T02:58:45.894Z,11
2023-05-19T02:59:46.075Z,11
2023-05-19T03:00:46.242Z,11
2023-05-19T03:01:46.468Z,11
2023-05-19T03:02:46.835Z,11
2023-05-19T03:03:47.377Z,11
2023-05-19T03:04:47.722Z,11
2023-05-19T03:05:47.904Z,11
2023-05-19T03:06:48.081Z,11
2023-05-19T03:07:48.255Z,11
2023-05-19T03:08:48.410Z,11
2023-05-19T03:09:48.573Z,11
2023-05-19T03:10:48.723Z,11
2023-05-19T03:11:48.879Z,11
2023-05-19T03:12:49.076Z,11
2023-05-19T03:13:49.234Z,11
2023-05-19T03:14:49.409Z,11
2023-05-19T03:15:49.643Z,11
2023-05-19T03:16:50.053Z,11
2023-05-19T03:17:50.720Z,11
2023-05-19T03:18:51.236Z,11
2023-05-19T03:19:51.447Z,11
2023-05-19T03:20:51.624Z,11
2023-05-19T03:21:51.819Z,11
2023-05-19T03:22:52.000Z,11
2023-05-19T03:23:52.199Z,11
2023-05-19T03:24:52.371Z,11
2023-05-19T03:25:52.532Z,11
2023-05-19T03:26:52.686Z,11
2023-05-19T03:27:52.848Z,11
2023-05-19T03:28:53.036Z,11
2023-05-19T03:29:53.235Z,11
2023-05-19T03:30:53.418Z,11
2023-05-19T03:31:53.581Z,10.7
2023-05-19T03:32:53.886Z,10.7
2023-05-19T03:33:54.237Z,10.7
2023-05-19T03:34:54.422Z,10.7
2023-05-19T03:35:54.583Z,10.7
2023-05-19T03:36:54.738Z,10.7
2023-05-19T03:37:54.895Z,10.7
2023-05-19T03:38:55.060Z,10.7
2023-05-19T03:39:55.219Z,10.7
2023-05-19T03:40:55.387Z,10.7
2023-05-19T03:41:55.578Z,10.7
2023-05-19T03:42:55.765Z,10.7
2023-05-19T03:43:55.918Z,10.7
2023-05-19T03:44:56.090Z,10.7
2023-05-19T03:45:56.288Z,10.7
2023-05-19T03:46:56.536Z,10.7
2023-05-19T03:47:56.803Z,10.7
2023-05-19T03:48:57.059Z,10.7
2023-05-19T03:49:57.227Z,10.7
2023-05-19T03:50:57.388Z,10.7
2023-05-19T03:51:57.548Z,10.7
2023-05-19T03:52:57.687Z,10.7
2023-05-19T03:53:57.837Z,10.7
2023-05-19T03:54:58.027Z,10.7
2023-05-19T03:55:58.192Z,10.7
2023-05-19T03:56:58.387Z,10.7
2023-05-19T03:57:58.568Z,10.7
2023-05-19T03:58:58.725Z,10.7
2023-05-19T03:59:58.911Z,10.7
2023-05-19T04:00:59.074Z,10.7
2023-05-19T04:01:59.384Z,10.7
2023-05-19T04:02:59.837Z,10.7
2023-05-19T04:04:00.302Z,10.7
2023-05-19T04:05:00.554Z,10.7
2023-05-19T04:06:00.744Z,10.7
2023-05-19T04:07:00.899Z,10.7
2023-05-19T04:08:01.064Z,10.7
2023-05-19T04:09:01.223Z,10.7
2023-05-19T04:10:01.408Z,10.7
2023-05-19T04:11:01.601Z,10.7
2023-05-19T04:12:01.766Z,10.7
2023-05-19T04:13:01.942Z,10.7
2023-05-19T04:14:02.096Z,10.7
2023-05-19T04:15:02.330Z,10.7
2023-05-19T04:16:02.611Z,10.7
2023-05-19T04:17:02.844Z,10.7
2023-05-19T04:18:03.062Z,10.7
2023-05-19T04:19:03.409Z,10.7
2023-05-19T04:20:03.708Z,10.7
2023-05-19T04:21:03.870Z,10.7
2023-05-19T04:22:04.034Z,10.7
2023-05-19T04:23:04.201Z,10.7
2023-05-19T04:24:04.456Z,10.7
2023-05-19T04:25:04.627Z,10.7
2023-05-19T04:26:04.786Z,10.7
2023-05-19T04:27:04.954Z,10.7
2023-05-19T04:28:05.124Z,10.7
2023-05-19T04:29:05.338Z,10.7
2023-05-19T04:30:05.514Z,10.7
2023-05-19T04:31:05.766Z,10.5
2023-05-19T04:32:06.037Z,10.5
2023-05-19T04:33:06.320Z,10.5
2023-05-19T04:34:06.608Z,10.5
2023-05-19T04:35:06.783Z,10.5
2023-05-19T04:36:06.967Z,10.5
2023-05-19T04:37:07.169Z,10.5
2023-05-19T04:38:07.365Z,10.5
2023-05-19T04:39:07.538Z,10.5
2023-05-19T04:40:07.714Z,10.5
2023-05-19T04:41:07.876Z,10.5
2023-05-19T04:42:08.036Z,10.5
2023-05-19T04:43:08.209Z,10.5
2023-05-19T04:44:08.360Z,10.5
2023-05-19T04:45:08.510Z,10.5
2023-05-19T04:46:12.372Z,10.5
2023-05-19T04:47:14.191Z,10.5
2023-05-19T04:48:14.356Z,10.5
2023-05-19T04:49:14.534Z,10.5
2023-05-19T04:50:14.755Z,10.5
2023-05-19T04:51:14.914Z,10.5
2023-05-19T04:52:15.096Z,10.5
2023-05-19T04:53:15.261Z,10.5
2023-05-19T04:54:15.437Z,10.5
2023-05-19T04:55:15.589Z,10.5
2023-05-19T04:56:15.933Z,10.5
2023-05-19T04:57:16.093Z,10.5
2023-05-19T04:58:16.282Z,10.5
2023-05-19T04:59:16.462Z,10.5
2023-05-19T05:00:16.610Z,10.5
2023-05-19T05:01:16.845Z,10.5
2023-05-19T05:02:17.358Z,10.5
2023-05-19T05:03:18.026Z,10.5
2023-05-19T05:04:18.328Z,10.5
2023-05-19T05:05:18.483Z,10.5
2023-05-19T05:06:18.659Z,10.5
2023-05-19T05:07:18.809Z,10.5
2023-05-19T05:08:18.982Z,10.5
2023-05-19T05:09:19.140Z,10.5
2023-05-19T05:10:19.311Z,10.5
2023-05-19T05:11:19.668Z,10.5
2023-05-19T05:12:19.949Z,10.5
2023-05-19T05:13:20.122Z,10.5
2023-05-19T05:14:20.316Z,10.5
2023-05-19T05:15:20.512Z,10.5
2023-05-19T05:16:20.753Z,10.5
2023-05-19T05:17:21.051Z,10.5
2023-05-19T05:18:21.200Z,10.5
2023-05-19T05:19:21.428Z,10.5
2023-05-19T05:20:21.692Z,10.5
2023-05-19T05:21:21.838Z,10.5
2023-05-19T05:22:22.009Z,10.5
2023-05-19T05:23:22.198Z,10.5
2023-05-19T05:24:22.387Z,10.5
2023-05-19T05:25:22.568Z,10.5
2023-05-19T05:26:22.752Z,10.5
2023-05-19T05:27:22.930Z,10.5
2023-05-19T05:28:23.096Z,10.5
2023-05-19T05:29:23.277Z,10.5
2023-05-19T05:30:23.433Z,10.5
2023-05-19T05:31:23.596Z,11.1
2023-05-19T05:32:23.878Z,11.1
2023-05-19T05:33:24.517Z,11.1
2023-05-19T05:34:24.980Z,11.1
2023-05-19T05:35:25.145Z,11.1
2023-05-19T05:36:25.325Z,11.1
2023-05-19T05:37:25.500Z,11.1
2023-05-19T05:38:25.692Z,11.1
2023-05-19T05:39:25.872Z,11.1
2023-05-19T05:40:26.030Z,11.1
2023-05-19T05:41:26.201Z,11.1
2023-05-19T05:42:29.767Z,11.1
2023-05-19T05:43:30.151Z,11.2
2023-05-19T05:44:30.350Z,11.2
2023-05-19T05:45:30.986Z,11.2
2023-05-19T05:46:31.600Z,11.2
2023-05-19T05:47:31.899Z,11.2
2023-05-19T05:48:32.132Z,11.2
2023-05-19T05:49:32.295Z,11.2
2023-05-19T05:50:32.483Z,11.2
2023-05-19T05:51:32.644Z,11.2
2023-05-19T05:52:32.796Z,11.2
2023-05-19T05:53:32.956Z,11.2
2023-05-19T05:54:33.133Z,11.2
2023-05-19T05:55:33.921Z,11.2
2023-05-19T05:56:34.526Z,11.2
2023-05-19T05:57:34.703Z,11.2
2023-05-19T05:58:37.406Z,11.2
2023-05-19T05:59:37.624Z,11.2
2023-05-19T06:00:37.820Z,11.2
2023-05-19T06:01:38.006Z,11.2
2023-05-19T06:02:38.389Z,11.2
2023-05-19T06:03:38.991Z,11.2
2023-05-19T06:04:39.228Z,11.2
2023-05-19T06:05:39.549Z,11.2
2023-05-19T06:06:39.874Z,11.2
2023-05-19T06:07:40.096Z,11.2
2023-05-19T06:08:40.300Z,11.2
2023-05-19T06:09:40.486Z,11.2
2023-05-19T06:10:40.687Z,11.2
2023-05-19T06:11:40.861Z,11.2
2023-05-19T06:12:41.050Z,11.2
2023-05-19T06:13:41.250Z,11.2
2023-05-19T06:14:41.449Z,11.2
2023-05-19T06:15:41.715Z,11.2
2023-05-19T06:16:42.184Z,11.2
2023-05-19T06:17:42.544Z,11.2
2023-05-19T06:18:42.797Z,11.2
2023-05-19T06:19:43.048Z,11.2
2023-05-19T06:20:43.230Z,11.2
2023-05-19T06:21:43.675Z,11.2
2023-05-19T06:22:44.538Z,11.2
2023-05-19T06:23:44.690Z,11.2
2023-05-19T06:24:44.855Z,11.2
2023-05-19T06:25:45.028Z,11.2
2023-05-19T06:26:45.183Z,11.2
2023-05-19T06:27:45.357Z,11.2
2023-05-19T06:28:45.534Z,11.2
2023-05-19T06:29:45.697Z,11.2
2023-05-19T06:30:45.870Z,11.2
2023-05-19T06:31:46.138Z,11.1
2023-05-19T06:32:46.503Z,11.1
2023-05-19T06:33:46.744Z,11.1
2023-05-19T06:34:46.966Z,11.1
2023-05-19T06:35:47.120Z,11.1
2023-05-19T06:36:47.273Z,11.1
2023-05-19T06:37:47.452Z,11.1
2023-05-19T06:38:47.607Z,11.1
2023-05-19T06:39:47.774Z,11.1
2023-05-19T06:40:47.947Z,11.1
2023-05-19T06:41:48.112Z,11.1
2023-05-19T06:42:48.272Z,11.1
2023-05-19T06:43:48.424Z,11.1
2023-05-19T06:44:48.575Z,11.1
2023-05-19T06:45:48.747Z,11.1
2023-05-19T06:46:49.027Z,11.1
2023-05-19T06:47:49.369Z,11.1
2023-05-19T06:48:49.597Z,11.1
2023-05-19T06:49:49.772Z,11.1
2023-05-19T06:50:49.968Z,11.1
2023-05-19T06:51:50.156Z,11.1
2023-05-19T06:52:50.337Z,11.1
2023-05-19T06:53:50.498Z,11.1
2023-05-19T06:54:50.641Z,11.1
2023-05-19T06:56:00.136Z,11.1
2023-05-19T06:57:00.756Z,11
2023-05-19T06:58:00.924Z,11
2023-05-19T06:59:01.089Z,11
2023-05-19T07:00:01.292Z,11
2023-05-19T07:01:01.465Z,11
2023-05-19T07:02:01.741Z,11
2023-05-19T07:03:02.402Z,11
2023-05-19T07:04:03.089Z,11
2023-05-19T07:05:03.539Z,11
2023-05-19T07:06:07.832Z,11
2023-05-19T07:07:08.729Z,11
2023-05-19T07:08:08.895Z,11
2023-05-19T07:09:09.648Z,11
2023-05-19T07:10:10.636Z,11
2023-05-19T07:11:10.794Z,11
2023-05-19T07:12:10.971Z,11
2023-05-19T07:13:11.155Z,11
2023-05-19T07:14:11.310Z,11
2023-05-19T07:15:11.463Z,11
2023-05-19T07:16:11.701Z,11
2023-05-19T07:17:11.992Z,11
2023-05-19T07:18:12.261Z,11
2023-05-19T07:19:12.664Z,11
2023-05-19T07:20:12.885Z,11
2023-05-19T07:21:13.039Z,11
2023-05-19T07:22:13.211Z,11
2023-05-19T07:23:16.028Z,11
2023-05-19T07:24:17.682Z,11
2023-05-19T07:25:17.853Z,11
2023-05-19T07:26:18.036Z,11
2023-05-19T07:27:18.232Z,11
2023-05-19T07:28:18.400Z,11
2023-05-19T07:29:18.594Z,11
2023-05-19T07:30:18.752Z,11
2023-05-19T07:31:18.939Z,11.3
2023-05-19T07:32:19.215Z,11.3
2023-05-19T07:33:19.481Z,11.3
2023-05-19T07:34:19.640Z,11.3
2023-05-19T07:35:19.806Z,11.3
2023-05-19T07:36:19.978Z,11.3
2023-05-19T07:37:20.165Z,11.3
2023-05-19T07:38:20.362Z,11.3
2023-05-19T07:39:20.635Z,11.3
2023-05-19T07:40:20.946Z,11.3
2023-05-19T07:41:21.137Z,11.3
2023-05-19T07:42:21.304Z,11.3
2023-05-19T07:43:21.483Z,11.3
2023-05-19T07:44:21.675Z,11.3
2023-05-19T07:45:21.831Z,11.3
2023-05-19T07:46:22.148Z,11.3
2023-05-19T07:47:22.620Z,11.3
2023-05-19T07:48:22.799Z,11.3
2023-05-19T07:49:22.962Z,11.3
2023-05-19T07:50:23.132Z,11.3
2023-05-19T07:51:23.408Z,11.3
2023-05-19T07:52:23.745Z,11.3
2023-05-19T07:53:23.924Z,11.3
2023-05-19T07:54:24.124Z,11.3
2023-05-19T07:55:24.283Z,11.3
2023-05-19T07:56:24.446Z,11.3
2023-05-19T07:57:24.616Z,11.3
2023-05-19T07:58:24.803Z,11.3
2023-05-19T07:59:24.973Z,11.3
2023-05-19T08:00:25.253Z,11.3
2023-05-19T08:01:25.442Z,11.3
2023-05-19T08:02:25.745Z,11.3
2023-05-19T08:03:26.476Z,11.3
2023-05-19T08:04:27.069Z,11.3
2023-05-19T08:05:27.351Z,11.3
2023-05-19T08:06:27.519Z,12.3
2023-05-19T08:07:27.691Z,12.3
2023-05-19T08:08:27.853Z,12.3
2023-05-19T08:09:28.091Z,12.3
2023-05-19T08:10:28.377Z,12.3
2023-05-19T08:11:28.569Z,12.3
2023-05-19T08:12:28.737Z,12.3
2023-05-19T08:13:28.908Z,12.3
2023-05-19T08:14:29.059Z,12.3
2023-05-19T08:15:29.293Z,12.3
2023-05-19T08:16:29.619Z,12.3
2023-05-19T08:17:29.957Z,12.3
2023-05-19T08:18:30.211Z,12.3
2023-05-19T08:19:30.547Z,12.3
2023-05-19T08:20:31.109Z,12.3
2023-05-19T08:21:31.690Z,12.3
2023-05-19T08:22:31.848Z,12.3
2023-05-19T08:23:32.046Z,12.3
2023-05-19T08:24:32.248Z,12.3
2023-05-19T08:25:32.407Z,12.3
2023-05-19T08:26:32.649Z,12.3
2023-05-19T08:27:33.527Z,12.3
2023-05-19T08:28:33.704Z,12.3
2023-05-19T08:29:33.871Z,12.3
2023-05-19T08:30:34.516Z,12.3
2023-05-19T08:31:35.180Z,12.3
2023-05-19T08:32:35.495Z,12.3
2023-05-19T08:33:35.753Z,12.3
2023-05-19T08:34:35.928Z,12.3
2023-05-19T08:35:36.102Z,12.3
2023-05-19T08:36:36.276Z,12.3
2023-05-19T08:37:36.437Z,12.3
2023-05-19T08:38:36.641Z,12.3
2023-05-19T08:39:36.822Z,12.3
2023-05-19T08:40:36.991Z,12.3
2023-05-19T08:41:37.151Z,12.3
2023-05-19T08:42:37.300Z,12.3
2023-05-19T08:43:37.458Z,12.3
2023-05-19T08:44:37.662Z,12.3
2023-05-19T08:45:37.922Z,12.3
2023-05-19T08:46:38.164Z,12.3
2023-05-19T08:47:38.510Z,12.3
2023-05-19T08:48:38.787Z,12.3
2023-05-19T08:49:38.953Z,12.3
2023-05-19T08:50:39.116Z,12.3
2023-05-19T08:51:39.314Z,12.3
2023-05-19T08:52:39.498Z,12.3
2023-05-19T08:53:39.678Z,12.3
2023-05-19T08:54:39.832Z,12.3
2023-05-19T08:55:39.989Z,12.3
2023-05-19T08:56:40.186Z,12.3
2023-05-19T08:57:40.363Z,12.3
2023-05-19T08:58:40.535Z,12.3
2023-05-19T08:59:40.735Z,12.3
2023-05-19T09:00:40.953Z,12.3
2023-05-19T09:01:41.179Z,12.3
2023-05-19T09:03:01.149Z,12.3
2023-05-19T09:04:18.588Z,13
2023-05-19T09:05:18.984Z,13
2023-05-19T09:06:19.231Z,13
2023-05-19T09:07:19.433Z,13.1
2023-05-19T09:08:19.603Z,13.1
2023-05-19T09:09:19.791Z,13.1
2023-05-19T09:10:19.960Z,13.1
2023-05-19T09:11:20.172Z,13.1
2023-05-19T09:12:20.369Z,13.1
2023-05-19T09:13:20.531Z,13.1
2023-05-19T09:14:20.706Z,13.1
2023-05-19T09:15:21.018Z,13.1
2023-05-19T09:16:21.487Z,13.1
2023-05-19T09:17:21.791Z,13.1
2023-05-19T09:18:22.054Z,13.1
2023-05-19T09:19:22.305Z,13.1
2023-05-19T09:20:22.566Z,13.1
2023-05-19T09:21:22.732Z,13.1
2023-05-19T09:22:22.944Z,13.1
2023-05-19T09:23:23.129Z,13.1
2023-05-19T09:24:23.282Z,13.1
2023-05-19T09:25:23.484Z,13.1
2023-05-19T09:26:23.646Z,13.1
2023-05-19T09:27:23.830Z,13.1
2023-05-19T09:28:24.042Z,13.1
2023-05-19T09:29:24.228Z,13.1
2023-05-19T09:30:24.417Z,13.1
2023-05-19T09:31:24.611Z,13.1
2023-05-19T09:32:25.122Z,13.1
2023-05-19T09:33:25.473Z,13.1
2023-05-19T09:34:25.641Z,13.1
2023-05-19T09:35:25.809Z,13.1
2023-05-19T09:36:25.980Z,13.1
2023-05-19T09:37:26.127Z,13.1
2023-05-19T09:38:26.302Z,13.1
2023-05-19T09:39:26.552Z,13.1
2023-05-19T09:40:26.752Z,13.1
2023-05-19T09:41:26.925Z,13.1
2023-05-19T09:42:27.117Z,13.1
2023-05-19T09:43:27.281Z,13.1
2023-05-19T09:44:27.443Z,13.1
2023-05-19T09:45:27.618Z,13.1
2023-05-19T09:46:27.899Z,13.1
2023-05-19T09:47:28.193Z,13.1
2023-05-19T09:48:28.425Z,13.1
2023-05-19T09:49:28.605Z,13.1
2023-05-19T09:50:28.800Z,13.1
2023-05-19T09:51:28.976Z,13.1
2023-05-19T09:52:29.274Z,13.1
2023-05-19T09:53:29.568Z,13.1
2023-05-19T09:54:30.007Z,13.1
2023-05-19T09:55:30.990Z,13.1
2023-05-19T09:56:31.497Z,13.1
2023-05-19T09:57:31.674Z,13.1
2023-05-19T09:58:31.831Z,13.1
2023-05-19T09:59:34.264Z,13.1
2023-05-19T10:00:35.167Z,13.1
2023-05-19T10:01:35.739Z,13.1
2023-05-19T10:02:36.044Z,13.1
2023-05-19T10:03:36.225Z,14.1
2023-05-19T10:04:36.504Z,14.1
2023-05-19T10:05:36.742Z,14.1
2023-05-19T10:06:36.940Z,14.1
2023-05-19T10:07:37.119Z,14.1
2023-05-19T10:08:37.269Z,14.1
2023-05-19T10:09:37.432Z,14.1
2023-05-19T10:10:37.718Z,14.1
2023-05-19T10:11:37.880Z,14.1
2023-05-19T10:12:38.075Z,14.1
2023-05-19T10:13:38.242Z,14.1
2023-05-19T10:14:38.435Z,14.1
2023-05-19T10:15:59.165Z,14.1
2023-05-19T10:17:00.934Z,14.4
2023-05-19T10:18:01.292Z,14.4
2023-05-19T10:19:01.662Z,14.4
2023-05-19T10:20:01.941Z,14.4
2023-05-19T10:21:02.138Z,14.4
2023-05-19T10:22:02.301Z,14.4
2023-05-19T10:23:02.473Z,14.4
2023-05-19T10:24:02.648Z,14.4
2023-05-19T10:25:02.844Z,14.4
2023-05-19T10:26:03.136Z,14.4
2023-05-19T10:27:03.319Z,14.4
2023-05-19T10:28:03.498Z,14.4
2023-05-19T10:29:03.668Z,14.4
2023-05-19T10:30:03.834Z,14.4
2023-05-19T10:31:04.021Z,14.4
2023-05-19T10:32:04.263Z,14.4
2023-05-19T10:33:04.519Z,14.4
2023-05-19T10:34:04.659Z,14.4
2023-05-19T10:35:04.872Z,14.4
2023-05-19T10:36:05.032Z,14.4
2023-05-19T10:37:05.193Z,14.4
2023-05-19T10:38:05.917Z,14.4
2023-05-19T10:39:06.267Z,14.4
2023-05-19T10:40:06.733Z,14.4
2023-05-19T10:41:08.100Z,14.4
2023-05-19T10:42:08.295Z,14.4
2023-05-19T10:43:08.475Z,15.1
2023-05-19T10:44:08.712Z,15.1
2023-05-19T10:45:08.883Z,15.1
2023-05-19T10:46:09.084Z,15.1
2023-05-19T10:47:09.320Z,15.1
2023-05-19T10:48:09.748Z,15.1
2023-05-19T10:49:10.020Z,15.1
2023-05-19T10:50:10.198Z,15.1
2023-05-19T10:51:10.386Z,15.1
2023-05-19T10:52:10.558Z,15.1
2023-05-19T10:53:10.718Z,15.1
2023-05-19T10:54:13.647Z,15.1
2023-05-19T10:55:14.694Z,15.1
2023-05-19T10:56:14.871Z,15.1
2023-05-19T10:57:15.068Z,15.1
2023-05-19T10:58:15.219Z,15.1
2023-05-19T10:59:15.392Z,15.1
2023-05-19T11:00:15.655Z,15.1
2023-05-19T11:01:16.031Z,15.1
2023-05-19T11:02:16.319Z,15.1
2023-05-19T11:03:16.537Z,15.1
2023-05-19T11:04:16.744Z,15.1
2023-05-19T11:05:17.020Z,15.1
2023-05-19T11:06:17.200Z,15.1
2023-05-19T11:07:17.588Z,15.1
2023-05-19T11:08:17.768Z,15.1
2023-05-19T11:09:19.596Z,15.1
2023-05-19T11:10:34.291Z,16.1
2023-05-19T11:11:34.971Z,16.1
2023-05-19T11:12:35.120Z,16.1
2023-05-19T11:13:36.856Z,16.1
2023-05-19T11:14:37.001Z,16.1
2023-05-19T11:15:37.159Z,16.1
2023-05-19T11:16:37.396Z,16.1
2023-05-19T11:17:37.821Z,16.1
2023-05-19T11:18:38.072Z,16.1
2023-05-19T11:19:38.309Z,16.1
2023-05-19T11:20:38.566Z,16.1
2023-05-19T11:21:38.762Z,16.1
2023-05-19T11:22:38.941Z,16.1
2023-05-19T11:23:39.137Z,16.1
2023-05-19T11:24:39.497Z,16.1
2023-05-19T11:25:39.742Z,16.1
2023-05-19T11:26:39.913Z,16.1
2023-05-19T11:27:40.090Z,16.1
2023-05-19T11:28:40.292Z,16.1
2023-05-19T11:29:40.452Z,16.1
2023-05-19T11:30:40.619Z,16.1
2023-05-19T11:31:40.864Z,17.1
2023-05-19T11:32:41.191Z,17.1
2023-05-19T11:33:41.416Z,17.1
2023-05-19T11:34:41.574Z,17.1
2023-05-19T11:35:41.752Z,17.1
2023-05-19T11:36:41.914Z,17.1
2023-05-19T11:37:42.134Z,17.1
2023-05-19T11:38:42.293Z,17.1
2023-05-19T11:39:42.456Z,17.1
2023-05-19T11:40:42.621Z,17.1
2023-05-19T11:41:42.772Z,17.1
2023-05-19T11:42:42.938Z,17.1
2023-05-19T11:43:43.118Z,17.1
2023-05-19T11:44:43.278Z,17.1
2023-05-19T11:45:43.500Z,17.1
2023-05-19T11:46:43.783Z,17.1
2023-05-19T11:48:02.875Z,17.1
2023-05-19T11:49:03.780Z,17.7
2023-05-19T11:50:04.674Z,17.7
2023-05-19T11:51:05.618Z,17.7
2023-05-19T11:52:05.839Z,17.7
2023-05-19T11:53:06.315Z,17.7
2023-05-19T11:54:06.572Z,17.7
2023-05-19T11:55:06.740Z,17.7
2023-05-19T11:56:06.905Z,17.7
2023-05-19T11:57:07.192Z,17.7
2023-05-19T11:58:07.397Z,18.1
2023-05-19T11:59:07.576Z,18.1
2023-05-19T12:00:07.749Z,18.1
2023-05-19T12:01:07.948Z,18.1
2023-05-19T12:02:08.258Z,18.1
2023-05-19T12:03:09.618Z,18.1
2023-05-19T12:04:10.483Z,18.1
2023-05-19T12:05:10.871Z,18.1
2023-05-19T12:06:11.221Z,18.1
2023-05-19T12:07:11.468Z,18.1
2023-05-19T12:08:11.765Z,18.1
2023-05-19T12:09:12.256Z,18.1
2023-05-19T12:10:12.450Z,18.1
2023-05-19T12:11:12.705Z,18.1
2023-05-19T12:12:12.985Z,18.1
2023-05-19T12:13:13.145Z,18.1
2023-05-19T12:14:13.320Z,18.1
2023-05-19T12:15:13.482Z,19.1
2023-05-19T12:16:13.806Z,19.1
2023-05-19T12:17:14.098Z,19.1
2023-05-19T12:18:14.387Z,19.1
2023-05-19T12:19:14.831Z,19.1
2023-05-19T12:20:15.118Z,19.1
2023-05-19T12:21:15.320Z,19.1
2023-05-19T12:22:15.489Z,19.1
2023-05-19T12:23:15.669Z,19.1
2023-05-19T12:24:15.849Z,19.1
2023-05-19T12:25:16.017Z,19.1
2023-05-19T12:26:16.203Z,19.1
2023-05-19T12:27:16.360Z,19.1
2023-05-19T12:28:16.531Z,19.1
2023-05-19T12:29:16.714Z,19.1
2023-05-19T12:30:16.925Z,19.1
2023-05-19T12:31:17.160Z,19.1
2023-05-19T12:32:17.381Z,19.1
2023-05-19T12:33:17.544Z,19.1
2023-05-19T12:34:17.733Z,19.1
2023-05-19T12:35:17.936Z,19.1
2023-05-19T12:36:18.129Z,19.1
2023-05-19T12:37:18.273Z,20.1
2023-05-19T12:38:18.437Z,20.1
2023-05-19T12:39:21.471Z,20.1
2023-05-19T12:40:21.856Z,20.1
2023-05-19T12:41:22.030Z,20.1
2023-05-19T12:42:22.278Z,20.1
2023-05-19T12:43:22.777Z,20.1
2023-05-19T12:44:22.993Z,20.1
2023-05-19T12:45:23.180Z,20.1
2023-05-19T12:46:23.562Z,20.1
2023-05-19T12:47:24.006Z,20.1
2023-05-19T12:48:24.244Z,20.1
2023-05-19T12:49:24.397Z,20.1
2023-05-19T12:50:24.559Z,20.1
2023-05-19T12:51:24.718Z,20.1
2023-05-19T12:52:24.922Z,20.1
2023-05-19T12:53:25.080Z,20.1
2023-05-19T12:54:25.307Z,20.1
2023-05-19T12:55:25.576Z,20.1
2023-05-19T12:56:25.774Z,20.1
2023-05-19T12:57:26.420Z,20.1
2023-05-19T12:58:27.556Z,20.1
2023-05-19T12:59:38.960Z,20.1
2023-05-19T13:00:39.364Z,20.7
2023-05-19T13:01:39.724Z,20.7
2023-05-19T13:02:40.157Z,20.7
2023-05-19T13:03:40.747Z,20.7
2023-05-19T13:04:41.013Z,20.7
2023-05-19T13:05:41.213Z,20.7
2023-05-19T13:06:41.387Z,20.7
2023-05-19T13:07:41.569Z,20.7
2023-05-19T13:08:41.773Z,20.7
2023-05-19T13:09:41.963Z,20.7
2023-05-19T13:10:42.222Z,20.7
2023-05-19T13:11:42.373Z,20.7
2023-05-19T13:12:42.538Z,20.7
2023-05-19T13:13:42.706Z,20.7
2023-05-19T13:14:42.872Z,20.7
2023-05-19T13:15:43.027Z,20.7
2023-05-19T13:16:43.295Z,20.7
2023-05-19T13:17:43.662Z,20.7
2023-05-19T13:18:43.954Z,20.7
2023-05-19T13:19:44.387Z,20.7
2023-05-19T13:20:44.694Z,20.7
2023-05-19T13:21:44.973Z,20.7
2023-05-19T13:22:45.278Z,20.7
2023-05-19T13:23:45.449Z,20.7
2023-05-19T13:24:45.616Z,20.7
2023-05-19T13:25:45.807Z,20.7
2023-05-19T13:26:46.018Z,20.7
2023-05-19T13:27:46.220Z,20.7
2023-05-19T13:28:46.390Z,20.7
2023-05-19T13:29:46.603Z,20.7